Lisse, Netherlands
Current Conditions -  °F | °C
As of 7:25 PM on Wednesday 28 Jan 2015 (Local Time) from EHAM Reporting Station
Few Clouds Few Clouds  
Wind Chill: 30°   Ceiling: Unl
Heat Index: 41°   Visibility: 6mi
Dew Point: 32°   Wind: 26mph
Humidity: 70%   Direction: 280°W
Pressure: 29.38"   Gusts: 39mph
Location:  52.26°N, 4.56°E
Report Text: EHAM 281825Z 28023G34KT 250V310 9999 FEW035 05/M00 Q0995 NOSIG
Loading
Personal Weather Stations






























Interactive Weather Map New forecast layout! Learn more

10-Day Weather Forecast

Advertisements
Track Severe Weather on mobile